sensor_id;sensor_type;location;lat;lon;timestamp;P1;durP1;ratioP1;P2;durP2;ratioP2
22937;SDS011;11634;42.734;23.298;2023-12-29T00:00:04;112.43;;;63.20;;
22937;SDS011;11634;42.734;23.298;2023-12-29T00:02:31;109.53;;;68.77;;
22937;SDS011;11634;42.734;23.298;2023-12-29T00:04:56;105.27;;;67.70;;
22937;SDS011;11634;42.734;23.298;2023-12-29T00:07:22;98.87;;;62.90;;
22937;SDS011;11634;42.734;23.298;2023-12-29T00:09:47;103.73;;;64.97;;
22937;SDS011;11634;42.734;23.298;2023-12-29T00:12:12;104.07;;;63.63;;
22937;SDS011;11634;42.734;23.298;2023-12-29T00:14:41;106.20;;;65.70;;
22937;SDS011;11634;42.734;23.298;2023-12-29T00:17:07;109.07;;;64.97;;
22937;SDS011;11634;42.734;23.298;2023-12-29T00:19:33;112.43;;;66.30;;
22937;SDS011;11634;42.734;23.298;2023-12-29T00:21:59;107.80;;;66.37;;
22937;SDS011;11634;42.734;23.298;2023-12-29T00:24:25;102.60;;;63.63;;
22937;SDS011;11634;42.734;23.298;2023-12-29T00:26:52;100.50;;;62.10;;
22937;SDS011;11634;42.734;23.298;2023-12-29T00:29:18;106.63;;;63.77;;
22937;SDS011;11634;42.734;23.298;2023-12-29T00:31:43;100.63;;;63.50;;
22937;SDS011;11634;42.734;23.298;2023-12-29T00:34:09;99.30;;;59.33;;
22937;SDS011;11634;42.734;23.298;2023-12-29T00:36:34;99.80;;;56.17;;
22937;SDS011;11634;42.734;23.298;2023-12-29T00:39:00;93.97;;;55.60;;
22937;SDS011;11634;42.734;23.298;2023-12-29T00:41:25;90.80;;;53.03;;
22937;SDS011;11634;42.734;23.298;2023-12-29T00:43:51;89.67;;;55.10;;
22937;SDS011;11634;42.734;23.298;2023-12-29T00:46:17;87.77;;;54.50;;
22937;SDS011;11634;42.734;23.298;2023-12-29T00:48:43;87.23;;;53.27;;
22937;SDS011;11634;42.734;23.298;2023-12-29T00:51:09;83.37;;;52.50;;
22937;SDS011;11634;42.734;23.298;2023-12-29T00:53:35;79.17;;;50.03;;
22937;SDS011;11634;42.734;23.298;2023-12-29T00:56:02;78.97;;;51.00;;
22937;SDS011;11634;42.734;23.298;2023-12-29T00:58:27;88.63;;;52.80;;
22937;SDS011;11634;42.734;23.298;2023-12-29T01:00:53;82.00;;;50.83;;
22937;SDS011;11634;42.734;23.298;2023-12-29T01:03:20;75.33;;;48.20;;
22937;SDS011;11634;42.734;23.298;2023-12-29T01:05:45;79.77;;;52.03;;
22937;SDS011;11634;42.734;23.298;2023-12-29T01:08:11;70.80;;;48.43;;
22937;SDS011;11634;42.734;23.298;2023-12-29T01:10:37;82.27;;;50.20;;
22937;SDS011;11634;42.734;23.298;2023-12-29T01:13:03;77.43;;;49.93;;
22937;SDS011;11634;42.734;23.298;2023-12-29T01:15:28;75.67;;;49.67;;
22937;SDS011;11634;42.734;23.298;2023-12-29T01:17:54;79.60;;;51.00;;
22937;SDS011;11634;42.734;23.298;2023-12-29T01:20:19;76.80;;;50.10;;
22937;SDS011;11634;42.734;23.298;2023-12-29T01:22:45;81.07;;;49.53;;
22937;SDS011;11634;42.734;23.298;2023-12-29T01:25:10;84.77;;;51.20;;
22937;SDS011;11634;42.734;23.298;2023-12-29T01:27:36;83.00;;;52.20;;
22937;SDS011;11634;42.734;23.298;2023-12-29T01:30:01;98.07;;;62.27;;
22937;SDS011;11634;42.734;23.298;2023-12-29T01:32:27;100.47;;;63.57;;
22937;SDS011;11634;42.734;23.298;2023-12-29T01:34:52;97.17;;;62.00;;
22937;SDS011;11634;42.734;23.298;2023-12-29T01:37:18;98.57;;;64.67;;
22937;SDS011;11634;42.734;23.298;2023-12-29T01:39:43;113.70;;;72.80;;
22937;SDS011;11634;42.734;23.298;2023-12-29T01:42:09;113.37;;;67.47;;
22937;SDS011;11634;42.734;23.298;2023-12-29T01:44:36;117.87;;;75.47;;
22937;SDS011;11634;42.734;23.298;2023-12-29T01:47:02;138.23;;;84.10;;
22937;SDS011;11634;42.734;23.298;2023-12-29T01:49:31;137.63;;;86.87;;
22937;SDS011;11634;42.734;23.298;2023-12-29T01:51:58;130.10;;;82.53;;
22937;SDS011;11634;42.734;23.298;2023-12-29T01:54:25;125.93;;;82.07;;
22937;SDS011;11634;42.734;23.298;2023-12-29T01:56:52;121.77;;;77.87;;
22937;SDS011;11634;42.734;23.298;2023-12-29T01:59:20;119.43;;;76.63;;
22937;SDS011;11634;42.734;23.298;2023-12-29T02:01:46;107.90;;;70.37;;
22937;SDS011;11634;42.734;23.298;2023-12-29T02:04:12;110.97;;;69.37;;
22937;SDS011;11634;42.734;23.298;2023-12-29T02:06:38;116.03;;;74.27;;
22937;SDS011;11634;42.734;23.298;2023-12-29T02:09:04;105.10;;;68.83;;
22937;SDS011;11634;42.734;23.298;2023-12-29T02:11:30;106.93;;;66.37;;
22937;SDS011;11634;42.734;23.298;2023-12-29T02:13:57;99.67;;;62.90;;
22937;SDS011;11634;42.734;23.298;2023-12-29T02:19:08;100.07;;;60.80;;
22937;SDS011;11634;42.734;23.298;2023-12-29T02:21:39;104.30;;;62.27;;
22937;SDS011;11634;42.734;23.298;2023-12-29T02:24:04;92.97;;;60.07;;
22937;SDS011;11634;42.734;23.298;2023-12-29T02:26:30;84.33;;;55.57;;
22937;SDS011;11634;42.734;23.298;2023-12-29T02:29:00;87.53;;;55.27;;
22937;SDS011;11634;42.734;23.298;2023-12-29T02:31:27;77.43;;;48.03;;
22937;SDS011;11634;42.734;23.298;2023-12-29T02:33:55;69.33;;;44.70;;
22937;SDS011;11634;42.734;23.298;2023-12-29T02:36:21;75.83;;;46.03;;
22937;SDS011;11634;42.734;23.298;2023-12-29T02:38:47;73.20;;;46.13;;
22937;SDS011;11634;42.734;23.298;2023-12-29T02:41:13;70.37;;;43.60;;
22937;SDS011;11634;42.734;23.298;2023-12-29T02:43:39;85.33;;;51.43;;
22937;SDS011;11634;42.734;23.298;2023-12-29T02:46:05;82.17;;;48.30;;
22937;SDS011;11634;42.734;23.298;2023-12-29T02:48:31;79.03;;;48.90;;
22937;SDS011;11634;42.734;23.298;2023-12-29T02:50:56;77.93;;;49.10;;
22937;SDS011;11634;42.734;23.298;2023-12-29T02:53:23;78.37;;;48.43;;
22937;SDS011;11634;42.734;23.298;2023-12-29T02:55:48;75.87;;;46.07;;
22937;SDS011;11634;42.734;23.298;2023-12-29T02:58:14;76.93;;;44.50;;
22937;SDS011;11634;42.734;23.298;2023-12-29T03:00:39;81.73;;;50.80;;
22937;SDS011;11634;42.734;23.298;2023-12-29T03:03:05;74.07;;;46.63;;
22937;SDS011;11634;42.734;23.298;2023-12-29T03:05:30;76.13;;;47.33;;
22937;SDS011;11634;42.734;23.298;2023-12-29T03:07:56;72.43;;;48.93;;
22937;SDS011;11634;42.734;23.298;2023-12-29T03:10:23;81.97;;;50.07;;
22937;SDS011;11634;42.734;23.298;2023-12-29T03:12:49;78.90;;;50.00;;
22937;SDS011;11634;42.734;23.298;2023-12-29T03:15:14;79.77;;;49.90;;
22937;SDS011;11634;42.734;23.298;2023-12-29T03:17:40;80.80;;;50.70;;
22937;SDS011;11634;42.734;23.298;2023-12-29T03:20:06;82.80;;;49.57;;
22937;SDS011;11634;42.734;23.298;2023-12-29T03:22:34;79.10;;;49.37;;
22937;SDS011;11634;42.734;23.298;2023-12-29T03:24:59;95.77;;;57.43;;
22937;SDS011;11634;42.734;23.298;2023-12-29T03:27:25;82.00;;;52.33;;
22937;SDS011;11634;42.734;23.298;2023-12-29T03:29:50;83.93;;;52.87;;
22937;SDS011;11634;42.734;23.298;2023-12-29T03:32:16;86.47;;;52.60;;
22937;SDS011;11634;42.734;23.298;2023-12-29T03:34:42;81.50;;;52.43;;
22937;SDS011;11634;42.734;23.298;2023-12-29T03:37:09;80.60;;;49.17;;
22937;SDS011;11634;42.734;23.298;2023-12-29T03:39:34;83.43;;;54.03;;
22937;SDS011;11634;42.734;23.298;2023-12-29T03:42:00;101.93;;;60.87;;
22937;SDS011;11634;42.734;23.298;2023-12-29T03:44:26;106.37;;;59.13;;
22937;SDS011;11634;42.734;23.298;2023-12-29T03:46:51;95.20;;;58.53;;
22937;SDS011;11634;42.734;23.298;2023-12-29T03:49:17;98.83;;;58.33;;
22937;SDS011;11634;42.734;23.298;2023-12-29T03:51:44;93.73;;;56.33;;
22937;SDS011;11634;42.734;23.298;2023-12-29T03:54:10;100.30;;;59.60;;
22937;SDS011;11634;42.734;23.298;2023-12-29T03:56:35;104.43;;;66.27;;
22937;SDS011;11634;42.734;23.298;2023-12-29T03:59:01;99.77;;;58.77;;
22937;SDS011;11634;42.734;23.298;2023-12-29T04:01:26;92.47;;;56.00;;
22937;SDS011;11634;42.734;23.298;2023-12-29T04:03:52;90.83;;;53.20;;
22937;SDS011;11634;42.734;23.298;2023-12-29T04:06:18;78.50;;;52.17;;
22937;SDS011;11634;42.734;23.298;2023-12-29T04:08:43;93.80;;;54.43;;
22937;SDS011;11634;42.734;23.298;2023-12-29T04:11:09;81.63;;;48.50;;
22937;SDS011;11634;42.734;23.298;2023-12-29T04:13:35;85.63;;;50.70;;
22937;SDS011;11634;42.734;23.298;2023-12-29T04:16:02;85.50;;;50.47;;
22937;SDS011;11634;42.734;23.298;2023-12-29T04:18:28;88.30;;;50.53;;
22937;SDS011;11634;42.734;23.298;2023-12-29T04:20:53;78.37;;;48.57;;
22937;SDS011;11634;42.734;23.298;2023-12-29T04:23:19;77.23;;;46.17;;
22937;SDS011;11634;42.734;23.298;2023-12-29T04:25:44;77.23;;;44.43;;
22937;SDS011;11634;42.734;23.298;2023-12-29T04:28:10;64.93;;;38.17;;
22937;SDS011;11634;42.734;23.298;2023-12-29T04:30:36;69.63;;;42.90;;
22937;SDS011;11634;42.734;23.298;2023-12-29T04:33:01;75.23;;;42.33;;
22937;SDS011;11634;42.734;23.298;2023-12-29T04:35:27;75.83;;;42.60;;
22937;SDS011;11634;42.734;23.298;2023-12-29T04:37:52;84.17;;;40.57;;
22937;SDS011;11634;42.734;23.298;2023-12-29T04:40:19;68.40;;;36.53;;
22937;SDS011;11634;42.734;23.298;2023-12-29T04:42:45;81.93;;;42.23;;
22937;SDS011;11634;42.734;23.298;2023-12-29T04:45:12;91.97;;;46.70;;
22937;SDS011;11634;42.734;23.298;2023-12-29T04:47:38;90.60;;;44.30;;
22937;SDS011;11634;42.734;23.298;2023-12-29T04:50:04;93.87;;;46.20;;
22937;SDS011;11634;42.734;23.298;2023-12-29T04:52:31;89.37;;;45.70;;
22937;SDS011;11634;42.734;23.298;2023-12-29T04:54:56;89.20;;;46.77;;
22937;SDS011;11634;42.734;23.298;2023-12-29T04:57:22;88.40;;;47.27;;
22937;SDS011;11634;42.734;23.298;2023-12-29T04:59:48;87.33;;;45.73;;
22937;SDS011;11634;42.734;23.298;2023-12-29T05:02:13;86.37;;;43.23;;
22937;SDS011;11634;42.734;23.298;2023-12-29T05:04:38;82.33;;;44.03;;
22937;SDS011;11634;42.734;23.298;2023-12-29T05:07:05;87.03;;;46.40;;
22937;SDS011;11634;42.734;23.298;2023-12-29T05:09:30;79.97;;;45.53;;
22937;SDS011;11634;42.734;23.298;2023-12-29T05:11:57;94.40;;;48.50;;
22937;SDS011;11634;42.734;23.298;2023-12-29T05:14:24;92.90;;;46.63;;
22937;SDS011;11634;42.734;23.298;2023-12-29T05:16:49;89.47;;;48.57;;
22937;SDS011;11634;42.734;23.298;2023-12-29T05:19:15;91.47;;;47.63;;
22937;SDS011;11634;42.734;23.298;2023-12-29T05:21:40;102.43;;;49.80;;
22937;SDS011;11634;42.734;23.298;2023-12-29T05:24:07;89.93;;;45.63;;
22937;SDS011;11634;42.734;23.298;2023-12-29T05:26:32;74.13;;;42.17;;
22937;SDS011;11634;42.734;23.298;2023-12-29T05:28:57;62.10;;;40.93;;
22937;SDS011;11634;42.734;23.298;2023-12-29T05:31:23;66.27;;;41.03;;
22937;SDS011;11634;42.734;23.298;2023-12-29T05:33:48;66.33;;;39.57;;
22937;SDS011;11634;42.734;23.298;2023-12-29T05:36:14;64.17;;;38.97;;
22937;SDS011;11634;42.734;23.298;2023-12-29T05:38:43;68.67;;;41.10;;
22937;SDS011;11634;42.734;23.298;2023-12-29T05:41:12;74.07;;;40.43;;
22937;SDS011;11634;42.734;23.298;2023-12-29T05:43:38;87.33;;;54.83;;
22937;SDS011;11634;42.734;23.298;2023-12-29T05:46:10;78.77;;;45.50;;
22937;SDS011;11634;42.734;23.298;2023-12-29T05:48:37;76.53;;;45.23;;
22937;SDS011;11634;42.734;23.298;2023-12-29T05:51:09;74.97;;;43.07;;
22937;SDS011;11634;42.734;23.298;2023-12-29T05:53:36;70.63;;;41.93;;
22937;SDS011;11634;42.734;23.298;2023-12-29T05:56:01;69.93;;;40.00;;
22937;SDS011;11634;42.734;23.298;2023-12-29T05:58:27;65.93;;;40.23;;
22937;SDS011;11634;42.734;23.298;2023-12-29T06:00:54;68.93;;;41.30;;
22937;SDS011;11634;42.734;23.298;2023-12-29T06:03:20;68.43;;;42.87;;
22937;SDS011;11634;42.734;23.298;2023-12-29T06:05:45;76.83;;;42.87;;
22937;SDS011;11634;42.734;23.298;2023-12-29T06:08:12;72.33;;;42.57;;
22937;SDS011;11634;42.734;23.298;2023-12-29T06:10:37;74.90;;;44.07;;
22937;SDS011;11634;42.734;23.298;2023-12-29T06:13:04;73.20;;;41.67;;
22937;SDS011;11634;42.734;23.298;2023-12-29T06:15:37;73.33;;;42.30;;
22937;SDS011;11634;42.734;23.298;2023-12-29T06:18:09;96.93;;;57.33;;
22937;SDS011;11634;42.734;23.298;2023-12-29T06:20:39;79.23;;;48.20;;
22937;SDS011;11634;42.734;23.298;2023-12-29T06:23:07;83.17;;;47.80;;
22937;SDS011;11634;42.734;23.298;2023-12-29T06:25:42;78.60;;;43.47;;
22937;SDS011;11634;42.734;23.298;2023-12-29T06:28:08;73.80;;;40.53;;
22937;SDS011;11634;42.734;23.298;2023-12-29T06:30:34;67.87;;;39.20;;
22937;SDS011;11634;42.734;23.298;2023-12-29T06:33:00;80.53;;;41.17;;
22937;SDS011;11634;42.734;23.298;2023-12-29T06:38:54;57.30;;;33.17;;
22937;SDS011;11634;42.734;23.298;2023-12-29T06:41:24;63.63;;;38.17;;
22937;SDS011;11634;42.734;23.298;2023-12-29T06:43:50;74.47;;;41.37;;
22937;SDS011;11634;42.734;23.298;2023-12-29T06:46:15;71.07;;;40.17;;
22937;SDS011;11634;42.734;23.298;2023-12-29T06:48:41;75.63;;;38.73;;
22937;SDS011;11634;42.734;23.298;2023-12-29T06:51:06;88.03;;;45.80;;
22937;SDS011;11634;42.734;23.298;2023-12-29T06:53:36;90.50;;;47.17;;
22937;SDS011;11634;42.734;23.298;2023-12-29T06:56:03;101.13;;;55.23;;
22937;SDS011;11634;42.734;23.298;2023-12-29T06:58:30;96.60;;;55.83;;
22937;SDS011;11634;42.734;23.298;2023-12-29T07:00:57;80.07;;;43.63;;
22937;SDS011;11634;42.734;23.298;2023-12-29T07:03:22;70.57;;;42.80;;
22937;SDS011;11634;42.734;23.298;2023-12-29T07:05:48;76.70;;;42.90;;
22937;SDS011;11634;42.734;23.298;2023-12-29T07:08:13;79.87;;;45.27;;
22937;SDS011;11634;42.734;23.298;2023-12-29T07:10:39;102.00;;;47.57;;
22937;SDS011;11634;42.734;23.298;2023-12-29T07:13:08;111.37;;;47.27;;
22937;SDS011;11634;42.734;23.298;2023-12-29T07:15:33;94.70;;;44.13;;
22937;SDS011;11634;42.734;23.298;2023-12-29T07:17:59;100.63;;;49.50;;
22937;SDS011;11634;42.734;23.298;2023-12-29T07:20:24;103.13;;;46.83;;
22937;SDS011;11634;42.734;23.298;2023-12-29T07:22:50;101.60;;;47.27;;
22937;SDS011;11634;42.734;23.298;2023-12-29T07:25:15;86.90;;;43.53;;
22937;SDS011;11634;42.734;23.298;2023-12-29T07:27:41;79.67;;;43.90;;
22937;SDS011;11634;42.734;23.298;2023-12-29T07:30:07;89.20;;;47.10;;
22937;SDS011;11634;42.734;23.298;2023-12-29T07:32:33;84.77;;;47.33;;
22937;SDS011;11634;42.734;23.298;2023-12-29T07:34:59;88.87;;;47.47;;
22937;SDS011;11634;42.734;23.298;2023-12-29T07:37:26;86.43;;;43.20;;
22937;SDS011;11634;42.734;23.298;2023-12-29T07:39:51;89.40;;;40.33;;
22937;SDS011;11634;42.734;23.298;2023-12-29T07:42:17;75.63;;;35.63;;
22937;SDS011;11634;42.734;23.298;2023-12-29T07:44:45;89.30;;;40.80;;
22937;SDS011;11634;42.734;23.298;2023-12-29T07:47:10;84.87;;;39.03;;
22937;SDS011;11634;42.734;23.298;2023-12-29T07:49:37;73.63;;;40.40;;
22937;SDS011;11634;42.734;23.298;2023-12-29T07:52:07;80.50;;;43.27;;
22937;SDS011;11634;42.734;23.298;2023-12-29T07:54:34;88.03;;;43.10;;
22937;SDS011;11634;42.734;23.298;2023-12-29T07:56:59;90.03;;;42.23;;
22937;SDS011;11634;42.734;23.298;2023-12-29T07:59:25;84.50;;;41.20;;
22937;SDS011;11634;42.734;23.298;2023-12-29T08:01:51;73.83;;;40.63;;
22937;SDS011;11634;42.734;23.298;2023-12-29T08:04:17;74.63;;;40.43;;
22937;SDS011;11634;42.734;23.298;2023-12-29T08:06:43;74.27;;;40.27;;
22937;SDS011;11634;42.734;23.298;2023-12-29T08:09:09;79.33;;;42.33;;
22937;SDS011;11634;42.734;23.298;2023-12-29T08:11:34;88.77;;;42.83;;
22937;SDS011;11634;42.734;23.298;2023-12-29T08:14:00;72.80;;;40.23;;
22937;SDS011;11634;42.734;23.298;2023-12-29T08:16:25;72.70;;;40.00;;
22937;SDS011;11634;42.734;23.298;2023-12-29T08:18:51;69.63;;;39.47;;
22937;SDS011;11634;42.734;23.298;2023-12-29T08:21:17;72.47;;;41.30;;
22937;SDS011;11634;42.734;23.298;2023-12-29T08:23:44;70.30;;;38.43;;
22937;SDS011;11634;42.734;23.298;2023-12-29T08:26:13;73.23;;;39.60;;
22937;SDS011;11634;42.734;23.298;2023-12-29T08:28:41;67.13;;;39.43;;
22937;SDS011;11634;42.734;23.298;2023-12-29T08:31:07;68.90;;;39.63;;
22937;SDS011;11634;42.734;23.298;2023-12-29T08:33:36;70.13;;;41.60;;
22937;SDS011;11634;42.734;23.298;2023-12-29T08:36:02;68.10;;;40.93;;
22937;SDS011;11634;42.734;23.298;2023-12-29T08:38:50;73.53;;;41.50;;
22937;SDS011;11634;42.734;23.298;2023-12-29T08:41:18;69.40;;;41.80;;
22937;SDS011;11634;42.734;23.298;2023-12-29T08:43:43;66.53;;;41.67;;
22937;SDS011;11634;42.734;23.298;2023-12-29T08:46:10;68.27;;;41.30;;
22937;SDS011;11634;42.734;23.298;2023-12-29T08:48:35;76.03;;;42.97;;
22937;SDS011;11634;42.734;23.298;2023-12-29T08:51:02;74.87;;;43.73;;
22937;SDS011;11634;42.734;23.298;2023-12-29T08:53:27;71.73;;;41.73;;
22937;SDS011;11634;42.734;23.298;2023-12-29T08:55:57;62.47;;;40.97;;
22937;SDS011;11634;42.734;23.298;2023-12-29T08:58:23;70.67;;;42.10;;
22937;SDS011;11634;42.734;23.298;2023-12-29T09:00:50;68.93;;;42.57;;
22937;SDS011;11634;42.734;23.298;2023-12-29T09:03:15;74.80;;;43.83;;
22937;SDS011;11634;42.734;23.298;2023-12-29T09:05:40;66.83;;;40.37;;
22937;SDS011;11634;42.734;23.298;2023-12-29T09:08:06;66.40;;;40.87;;
22937;SDS011;11634;42.734;23.298;2023-12-29T09:10:32;69.03;;;40.20;;
22937;SDS011;11634;42.734;23.298;2023-12-29T09:12:57;64.60;;;41.25;;
22937;SDS011;11634;42.734;23.298;2023-12-29T09:15:23;74.53;;;42.80;;
22937;SDS011;11634;42.734;23.298;2023-12-29T09:17:48;69.95;;;41.88;;
22937;SDS011;11634;42.734;23.298;2023-12-29T09:20:14;68.50;;;42.35;;
22937;SDS011;11634;42.734;23.298;2023-12-29T09:22:41;63.72;;;42.92;;
22937;SDS011;11634;42.734;23.298;2023-12-29T09:25:08;68.15;;;44.05;;
22937;SDS011;11634;42.734;23.298;2023-12-29T09:27:34;73.00;;;44.60;;
22937;SDS011;11634;42.734;23.298;2023-12-29T09:29:59;64.93;;;42.17;;
22937;SDS011;11634;42.734;23.298;2023-12-29T09:32:25;71.45;;;42.67;;
22937;SDS011;11634;42.734;23.298;2023-12-29T09:34:50;62.60;;;39.60;;
22937;SDS011;11634;42.734;23.298;2023-12-29T09:37:17;57.65;;;40.50;;
22937;SDS011;11634;42.734;23.298;2023-12-29T09:39:42;65.13;;;40.42;;
22937;SDS011;11634;42.734;23.298;2023-12-29T09:42:08;60.25;;;40.88;;
22937;SDS011;11634;42.734;23.298;2023-12-29T09:44:36;64.65;;;43.75;;
22937;SDS011;11634;42.734;23.298;2023-12-29T09:47:02;63.88;;;40.75;;
22937;SDS011;11634;42.734;23.298;2023-12-29T09:49:30;71.07;;;42.95;;
22937;SDS011;11634;42.734;23.298;2023-12-29T09:51:57;74.60;;;44.97;;
22937;SDS011;11634;42.734;23.298;2023-12-29T09:54:23;80.32;;;49.10;;
22937;SDS011;11634;42.734;23.298;2023-12-29T09:56:49;80.80;;;47.90;;
22937;SDS011;11634;42.734;23.298;2023-12-29T09:59:15;91.10;;;53.03;;
22937;SDS011;11634;42.734;23.298;2023-12-29T10:01:43;88.35;;;53.97;;
22937;SDS011;11634;42.734;23.298;2023-12-29T10:04:11;94.03;;;54.95;;
22937;SDS011;11634;42.734;23.298;2023-12-29T10:06:36;92.00;;;55.83;;
22937;SDS011;11634;42.734;23.298;2023-12-29T10:09:04;89.28;;;53.22;;
22937;SDS011;11634;42.734;23.298;2023-12-29T10:11:30;89.78;;;53.65;;
22937;SDS011;11634;42.734;23.298;2023-12-29T10:13:59;92.70;;;55.67;;
22937;SDS011;11634;42.734;23.298;2023-12-29T10:16:32;86.72;;;54.80;;
22937;SDS011;11634;42.734;23.298;2023-12-29T10:19:14;87.55;;;54.67;;
22937;SDS011;11634;42.734;23.298;2023-12-29T10:24:10;85.40;;;54.58;;
22937;SDS011;11634;42.734;23.298;2023-12-29T10:26:38;87.18;;;55.72;;
22937;SDS011;11634;42.734;23.298;2023-12-29T10:29:05;82.30;;;54.22;;
22937;SDS011;11634;42.734;23.298;2023-12-29T10:31:30;84.70;;;55.05;;
22937;SDS011;11634;42.734;23.298;2023-12-29T10:36:47;81.68;;;54.88;;
22937;SDS011;11634;42.734;23.298;2023-12-29T10:39:17;87.70;;;55.97;;
22937;SDS011;11634;42.734;23.298;2023-12-29T10:41:43;91.10;;;55.65;;
22937;SDS011;11634;42.734;23.298;2023-12-29T10:44:08;81.38;;;53.08;;
22937;SDS011;11634;42.734;23.298;2023-12-29T10:46:36;80.30;;;53.65;;
22937;SDS011;11634;42.734;23.298;2023-12-29T10:49:08;82.32;;;52.92;;
22937;SDS011;11634;42.734;23.298;2023-12-29T10:51:37;80.20;;;52.47;;
22937;SDS011;11634;42.734;23.298;2023-12-29T10:54:03;70.05;;;49.50;;
22937;SDS011;11634;42.734;23.298;2023-12-29T10:56:29;77.50;;;52.63;;
22937;SDS011;11634;42.734;23.298;2023-12-29T10:59:04;75.30;;;53.55;;
22937;SDS011;11634;42.734;23.298;2023-12-29T11:01:30;78.70;;;54.42;;
22937;SDS011;11634;42.734;23.298;2023-12-29T11:04:00;71.53;;;52.88;;
22937;SDS011;11634;42.734;23.298;2023-12-29T11:06:26;70.75;;;50.03;;
22937;SDS011;11634;42.734;23.298;2023-12-29T11:08:53;72.60;;;51.20;;
22937;SDS011;11634;42.734;23.298;2023-12-29T11:11:18;75.05;;;51.42;;
22937;SDS011;11634;42.734;23.298;2023-12-29T11:13:46;83.05;;;55.33;;
22937;SDS011;11634;42.734;23.298;2023-12-29T11:16:12;79.25;;;55.47;;
22937;SDS011;11634;42.734;23.298;2023-12-29T11:18:37;84.82;;;59.47;;
22937;SDS011;11634;42.734;23.298;2023-12-29T11:21:03;86.82;;;62.15;;
22937;SDS011;11634;42.734;23.298;2023-12-29T11:23:29;83.30;;;62.80;;
22937;SDS011;11634;42.734;23.298;2023-12-29T11:25:54;86.97;;;68.43;;
22937;SDS011;11634;42.734;23.298;2023-12-29T11:28:20;84.88;;;67.20;;
22937;SDS011;11634;42.734;23.298;2023-12-29T11:30:46;85.30;;;63.85;;
22937;SDS011;11634;42.734;23.298;2023-12-29T11:35:44;79.63;;;58.33;;
22937;SDS011;11634;42.734;23.298;2023-12-29T11:41:03;83.90;;;57.65;;
22937;SDS011;11634;42.734;23.298;2023-12-29T11:43:30;82.15;;;56.17;;
22937;SDS011;11634;42.734;23.298;2023-12-29T11:45:56;77.13;;;57.00;;
22937;SDS011;11634;42.734;23.298;2023-12-29T11:53:53;87.75;;;56.10;;
22937;SDS011;11634;42.734;23.298;2023-12-29T11:56:18;79.20;;;57.42;;
22937;SDS011;11634;42.734;23.298;2023-12-29T11:58:44;79.15;;;55.70;;
22937;SDS011;11634;42.734;23.298;2023-12-29T12:01:09;81.00;;;56.05;;
22937;SDS011;11634;42.734;23.298;2023-12-29T12:03:35;79.72;;;57.30;;
22937;SDS011;11634;42.734;23.298;2023-12-29T12:06:01;79.03;;;55.33;;
22937;SDS011;11634;42.734;23.298;2023-12-29T12:10:54;76.82;;;57.10;;
22937;SDS011;11634;42.734;23.298;2023-12-29T12:16:04;78.25;;;56.38;;
22937;SDS011;11634;42.734;23.298;2023-12-29T12:18:30;82.88;;;57.65;;
22937;SDS011;11634;42.734;23.298;2023-12-29T12:20:58;89.85;;;59.08;;
22937;SDS011;11634;42.734;23.298;2023-12-29T12:23:27;91.22;;;61.17;;
22937;SDS011;11634;42.734;23.298;2023-12-29T12:25:57;91.45;;;60.03;;
22937;SDS011;11634;42.734;23.298;2023-12-29T12:28:23;81.38;;;60.25;;
22937;SDS011;11634;42.734;23.298;2023-12-29T12:30:50;81.95;;;59.92;;
22937;SDS011;11634;42.734;23.298;2023-12-29T12:33:17;80.35;;;59.10;;
22937;SDS011;11634;42.734;23.298;2023-12-29T12:35:44;72.32;;;51.45;;
22937;SDS011;11634;42.734;23.298;2023-12-29T12:38:15;75.88;;;54.42;;
22937;SDS011;11634;42.734;23.298;2023-12-29T12:40:49;76.18;;;53.00;;
22937;SDS011;11634;42.734;23.298;2023-12-29T12:43:17;66.80;;;50.33;;
22937;SDS011;11634;42.734;23.298;2023-12-29T12:45:52;85.43;;;56.42;;
22937;SDS011;11634;42.734;23.298;2023-12-29T12:48:32;64.20;;;48.22;;
22937;SDS011;11634;42.734;23.298;2023-12-29T12:50:58;73.18;;;50.88;;
22937;SDS011;11634;42.734;23.298;2023-12-29T12:53:25;74.80;;;52.80;;
22937;SDS011;11634;42.734;23.298;2023-12-29T12:55:51;75.93;;;52.38;;
22937;SDS011;11634;42.734;23.298;2023-12-29T12:58:17;81.68;;;53.40;;
22937;SDS011;11634;42.734;23.298;2023-12-29T13:00:43;77.43;;;55.65;;
22937;SDS011;11634;42.734;23.298;2023-12-29T13:03:10;72.30;;;51.50;;
22937;SDS011;11634;42.734;23.298;2023-12-29T13:05:42;69.00;;;51.67;;
22937;SDS011;11634;42.734;23.298;2023-12-29T13:08:07;69.15;;;48.88;;
22937;SDS011;11634;42.734;23.298;2023-12-29T13:10:39;69.80;;;51.08;;
22937;SDS011;11634;42.734;23.298;2023-12-29T13:13:08;71.55;;;49.97;;
22937;SDS011;11634;42.734;23.298;2023-12-29T13:15:34;70.88;;;50.50;;
22937;SDS011;11634;42.734;23.298;2023-12-29T13:17:59;77.32;;;52.05;;
22937;SDS011;11634;42.734;23.298;2023-12-29T13:20:25;82.82;;;53.30;;
22937;SDS011;11634;42.734;23.298;2023-12-29T13:22:53;75.25;;;51.17;;
22937;SDS011;11634;42.734;23.298;2023-12-29T13:25:25;75.72;;;51.80;;
22937;SDS011;11634;42.734;23.298;2023-12-29T13:28:00;68.72;;;50.47;;
22937;SDS011;11634;42.734;23.298;2023-12-29T13:30:28;62.88;;;44.70;;
22937;SDS011;11634;42.734;23.298;2023-12-29T13:32:54;64.57;;;47.53;;
22937;SDS011;11634;42.734;23.298;2023-12-29T13:35:21;66.78;;;46.35;;
22937;SDS011;11634;42.734;23.298;2023-12-29T13:37:51;66.40;;;45.92;;
22937;SDS011;11634;42.734;23.298;2023-12-29T13:40:22;71.20;;;46.20;;
22937;SDS011;11634;42.734;23.298;2023-12-29T13:42:49;67.40;;;45.88;;
22937;SDS011;11634;42.734;23.298;2023-12-29T13:45:16;59.70;;;42.30;;
22937;SDS011;11634;42.734;23.298;2023-12-29T13:47:46;60.35;;;42.70;;
22937;SDS011;11634;42.734;23.298;2023-12-29T13:50:45;69.45;;;43.97;;
22937;SDS011;11634;42.734;23.298;2023-12-29T13:53:18;59.72;;;42.13;;
22937;SDS011;11634;42.734;23.298;2023-12-29T13:55:44;61.42;;;42.92;;
22937;SDS011;11634;42.734;23.298;2023-12-29T13:58:09;66.55;;;44.40;;
22937;SDS011;11634;42.734;23.298;2023-12-29T14:00:41;59.42;;;41.03;;
22937;SDS011;11634;42.734;23.298;2023-12-29T14:03:23;56.17;;;40.80;;
22937;SDS011;11634;42.734;23.298;2023-12-29T14:05:55;61.50;;;41.92;;
22937;SDS011;11634;42.734;23.298;2023-12-29T14:10:55;62.38;;;40.22;;
22937;SDS011;11634;42.734;23.298;2023-12-29T14:13:21;62.45;;;39.97;;
22937;SDS011;11634;42.734;23.298;2023-12-29T14:15:49;63.70;;;43.10;;
22937;SDS011;11634;42.734;23.298;2023-12-29T14:26:33;59.25;;;42.13;;
22937;SDS011;11634;42.734;23.298;2023-12-29T14:29:02;60.67;;;43.45;;
22937;SDS011;11634;42.734;23.298;2023-12-29T14:31:28;71.10;;;48.40;;
22937;SDS011;11634;42.734;23.298;2023-12-29T14:33:54;77.78;;;48.38;;
22937;SDS011;11634;42.734;23.298;2023-12-29T14:36:25;72.03;;;47.22;;
22937;SDS011;11634;42.734;23.298;2023-12-29T14:38:53;68.82;;;46.63;;
22937;SDS011;11634;42.734;23.298;2023-12-29T14:41:19;74.70;;;46.83;;
22937;SDS011;11634;42.734;23.298;2023-12-29T14:43:45;69.30;;;46.80;;